sensor_id;sensor_type;location;lat;lon;timestamp;P1;durP1;ratioP1;P2;durP2;ratioP2
65656;SDS011;57397;50.096;14.404;2023-02-15T00:00:08;13.98;;;7.18;;
65656;SDS011;57397;50.096;14.404;2023-02-15T00:02:37;13.45;;;6.68;;
65656;SDS011;57397;50.096;14.404;2023-02-15T00:05:03;11.80;;;6.38;;
65656;SDS011;57397;50.096;14.404;2023-02-15T00:07:29;14.38;;;7.35;;
65656;SDS011;57397;50.096;14.404;2023-02-15T00:09:54;13.23;;;7.05;;
65656;SDS011;57397;50.096;14.404;2023-02-15T00:12:20;15.25;;;7.43;;
65656;SDS011;57397;50.096;14.404;2023-02-15T00:14:47;12.05;;;6.43;;
65656;SDS011;57397;50.096;14.404;2023-02-15T00:17:13;14.55;;;6.53;;
65656;SDS011;57397;50.096;14.404;2023-02-15T00:19:38;12.75;;;7.00;;
65656;SDS011;57397;50.096;14.404;2023-02-15T00:22:05;13.57;;;6.63;;
65656;SDS011;57397;50.096;14.404;2023-02-15T00:24:30;14.77;;;7.60;;
65656;SDS011;57397;50.096;14.404;2023-02-15T00:26:56;11.90;;;6.60;;
65656;SDS011;57397;50.096;14.404;2023-02-15T00:29:22;12.93;;;6.05;;
65656;SDS011;57397;50.096;14.404;2023-02-15T00:31:47;13.45;;;7.13;;
65656;SDS011;57397;50.096;14.404;2023-02-15T00:34:17;14.07;;;6.97;;
65656;SDS011;57397;50.096;14.404;2023-02-15T00:36:47;11.70;;;6.33;;
65656;SDS011;57397;50.096;14.404;2023-02-15T00:39:13;11.43;;;6.88;;
65656;SDS011;57397;50.096;14.404;2023-02-15T00:41:39;11.18;;;5.60;;
65656;SDS011;57397;50.096;14.404;2023-02-15T00:44:04;13.48;;;6.38;;
65656;SDS011;57397;50.096;14.404;2023-02-15T00:46:31;14.32;;;6.97;;
65656;SDS011;57397;50.096;14.404;2023-02-15T00:48:56;11.57;;;5.93;;
65656;SDS011;57397;50.096;14.404;2023-02-15T00:51:23;11.07;;;6.50;;
65656;SDS011;57397;50.096;14.404;2023-02-15T00:53:49;10.90;;;5.97;;
65656;SDS011;57397;50.096;14.404;2023-02-15T00:56:14;12.30;;;6.05;;
65656;SDS011;57397;50.096;14.404;2023-02-15T00:58:40;12.02;;;6.25;;
65656;SDS011;57397;50.096;14.404;2023-02-15T01:01:07;11.70;;;6.25;;
65656;SDS011;57397;50.096;14.404;2023-02-15T01:03:37;12.75;;;6.57;;
65656;SDS011;57397;50.096;14.404;2023-02-15T01:06:03;13.05;;;6.22;;
65656;SDS011;57397;50.096;14.404;2023-02-15T01:08:29;12.77;;;6.95;;
65656;SDS011;57397;50.096;14.404;2023-02-15T01:10:55;12.60;;;5.95;;
65656;SDS011;57397;50.096;14.404;2023-02-15T01:13:21;11.77;;;6.03;;
65656;SDS011;57397;50.096;14.404;2023-02-15T01:15:52;11.60;;;6.03;;
65656;SDS011;57397;50.096;14.404;2023-02-15T01:18:19;13.27;;;6.60;;
65656;SDS011;57397;50.096;14.404;2023-02-15T01:20:45;12.57;;;6.53;;
65656;SDS011;57397;50.096;14.404;2023-02-15T01:23:10;12.10;;;6.20;;
65656;SDS011;57397;50.096;14.404;2023-02-15T01:25:36;11.27;;;6.32;;
65656;SDS011;57397;50.096;14.404;2023-02-15T01:28:02;12.55;;;6.97;;
65656;SDS011;57397;50.096;14.404;2023-02-15T01:30:28;12.65;;;6.18;;
65656;SDS011;57397;50.096;14.404;2023-02-15T01:32:53;12.27;;;6.43;;
65656;SDS011;57397;50.096;14.404;2023-02-15T01:35:19;12.15;;;5.88;;
65656;SDS011;57397;50.096;14.404;2023-02-15T01:37:44;11.48;;;6.20;;
65656;SDS011;57397;50.096;14.404;2023-02-15T01:40:12;11.65;;;6.07;;
65656;SDS011;57397;50.096;14.404;2023-02-15T01:42:39;13.07;;;6.18;;
65656;SDS011;57397;50.096;14.404;2023-02-15T01:47:43;11.85;;;6.10;;
65656;SDS011;57397;50.096;14.404;2023-02-15T01:52:50;12.18;;;6.28;;
65656;SDS011;57397;50.096;14.404;2023-02-15T01:55:20;13.63;;;6.22;;
65656;SDS011;57397;50.096;14.404;2023-02-15T01:57:47;12.57;;;6.25;;
65656;SDS011;57397;50.096;14.404;2023-02-15T02:00:13;13.85;;;6.45;;
65656;SDS011;57397;50.096;14.404;2023-02-15T02:02:41;11.27;;;5.75;;
65656;SDS011;57397;50.096;14.404;2023-02-15T02:05:07;11.48;;;5.75;;
65656;SDS011;57397;50.096;14.404;2023-02-15T02:07:37;12.75;;;6.40;;
65656;SDS011;57397;50.096;14.404;2023-02-15T02:10:05;12.25;;;6.30;;
65656;SDS011;57397;50.096;14.404;2023-02-15T02:12:32;10.88;;;5.50;;
65656;SDS011;57397;50.096;14.404;2023-02-15T02:14:58;11.48;;;5.93;;
65656;SDS011;57397;50.096;14.404;2023-02-15T02:36:00;10.95;;;6.40;;
65656;SDS011;57397;50.096;14.404;2023-02-15T02:41:32;11.30;;;6.10;;
65656;SDS011;57397;50.096;14.404;2023-02-15T02:47:14;10.27;;;5.55;;
65656;SDS011;57397;50.096;14.404;2023-02-15T02:49:43;11.55;;;5.65;;
65656;SDS011;57397;50.096;14.404;2023-02-15T02:55:25;10.23;;;5.40;;
65656;SDS011;57397;50.096;14.404;2023-02-15T02:57:54;10.88;;;5.68;;
65656;SDS011;57397;50.096;14.404;2023-02-15T03:00:23;10.20;;;5.13;;
65656;SDS011;57397;50.096;14.404;2023-02-15T03:02:52;10.32;;;5.18;;
65656;SDS011;57397;50.096;14.404;2023-02-15T03:05:24;10.95;;;5.47;;
65656;SDS011;57397;50.096;14.404;2023-02-15T03:07:53;9.55;;;5.22;;
65656;SDS011;57397;50.096;14.404;2023-02-15T03:10:20;10.15;;;5.47;;
65656;SDS011;57397;50.096;14.404;2023-02-15T03:12:47;9.68;;;5.57;;
65656;SDS011;57397;50.096;14.404;2023-02-15T03:15:19;8.65;;;5.20;;
65656;SDS011;57397;50.096;14.404;2023-02-15T03:17:47;9.00;;;4.90;;
65656;SDS011;57397;50.096;14.404;2023-02-15T03:23:06;8.43;;;4.82;;
65656;SDS011;57397;50.096;14.404;2023-02-15T03:25:32;8.70;;;4.68;;
65656;SDS011;57397;50.096;14.404;2023-02-15T03:28:00;8.73;;;4.65;;
65656;SDS011;57397;50.096;14.404;2023-02-15T03:30:28;9.48;;;5.25;;
65656;SDS011;57397;50.096;14.404;2023-02-15T03:32:55;9.38;;;4.90;;
65656;SDS011;57397;50.096;14.404;2023-02-15T03:35:23;9.25;;;4.95;;
65656;SDS011;57397;50.096;14.404;2023-02-15T03:37:51;8.43;;;4.78;;
65656;SDS011;57397;50.096;14.404;2023-02-15T03:40:26;7.55;;;4.60;;
65656;SDS011;57397;50.096;14.404;2023-02-15T03:43:32;8.95;;;4.65;;
65656;SDS011;57397;50.096;14.404;2023-02-15T03:46:03;8.50;;;4.70;;
65656;SDS011;57397;50.096;14.404;2023-02-15T03:48:39;7.40;;;3.95;;
65656;SDS011;57397;50.096;14.404;2023-02-15T03:51:26;8.52;;;4.90;;
65656;SDS011;57397;50.096;14.404;2023-02-15T03:54:42;7.45;;;4.22;;
65656;SDS011;57397;50.096;14.404;2023-02-15T03:57:09;8.38;;;4.40;;
65656;SDS011;57397;50.096;14.404;2023-02-15T03:59:54;5.95;;;4.07;;
65656;SDS011;57397;50.096;14.404;2023-02-15T04:02:40;7.63;;;4.30;;
65656;SDS011;57397;50.096;14.404;2023-02-15T04:05:31;7.05;;;4.35;;
65656;SDS011;57397;50.096;14.404;2023-02-15T04:07:57;7.78;;;4.00;;
65656;SDS011;57397;50.096;14.404;2023-02-15T04:10:22;8.02;;;4.32;;
65656;SDS011;57397;50.096;14.404;2023-02-15T04:13:06;6.97;;;4.20;;
65656;SDS011;57397;50.096;14.404;2023-02-15T04:15:31;7.00;;;4.30;;
65656;SDS011;57397;50.096;14.404;2023-02-15T04:18:36;7.35;;;4.10;;
65656;SDS011;57397;50.096;14.404;2023-02-15T04:21:22;7.57;;;3.90;;
65656;SDS011;57397;50.096;14.404;2023-02-15T04:24:07;6.70;;;4.10;;
65656;SDS011;57397;50.096;14.404;2023-02-15T04:26:52;8.10;;;4.57;;
65656;SDS011;57397;50.096;14.404;2023-02-15T04:29:18;6.70;;;3.97;;
65656;SDS011;57397;50.096;14.404;2023-02-15T04:31:45;6.80;;;4.35;;
65656;SDS011;57397;50.096;14.404;2023-02-15T04:34:10;6.20;;;4.00;;
65656;SDS011;57397;50.096;14.404;2023-02-15T04:36:39;7.10;;;3.97;;
65656;SDS011;57397;50.096;14.404;2023-02-15T04:39:05;6.68;;;3.90;;
65656;SDS011;57397;50.096;14.404;2023-02-15T04:41:31;6.68;;;3.72;;
65656;SDS011;57397;50.096;14.404;2023-02-15T04:43:56;6.68;;;3.63;;
65656;SDS011;57397;50.096;14.404;2023-02-15T04:46:22;6.65;;;3.45;;
65656;SDS011;57397;50.096;14.404;2023-02-15T04:48:48;6.88;;;3.85;;
65656;SDS011;57397;50.096;14.404;2023-02-15T04:51:13;6.50;;;3.50;;
65656;SDS011;57397;50.096;14.404;2023-02-15T04:53:39;6.82;;;3.63;;
65656;SDS011;57397;50.096;14.404;2023-02-15T04:56:05;5.40;;;3.47;;
65656;SDS011;57397;50.096;14.404;2023-02-15T04:58:30;6.60;;;3.67;;
65656;SDS011;57397;50.096;14.404;2023-02-15T05:00:56;5.72;;;3.50;;
65656;SDS011;57397;50.096;14.404;2023-02-15T05:03:22;5.70;;;3.65;;
65656;SDS011;57397;50.096;14.404;2023-02-15T05:05:48;6.57;;;3.70;;
65656;SDS011;57397;50.096;14.404;2023-02-15T05:08:14;6.43;;;3.92;;
65656;SDS011;57397;50.096;14.404;2023-02-15T05:10:40;5.65;;;3.38;;
65656;SDS011;57397;50.096;14.404;2023-02-15T05:13:05;6.18;;;3.40;;
65656;SDS011;57397;50.096;14.404;2023-02-15T05:15:31;5.07;;;3.35;;
65656;SDS011;57397;50.096;14.404;2023-02-15T05:17:56;6.82;;;3.88;;
65656;SDS011;57397;50.096;14.404;2023-02-15T05:20:22;6.45;;;3.42;;
65656;SDS011;57397;50.096;14.404;2023-02-15T05:22:47;5.07;;;3.38;;
65656;SDS011;57397;50.096;14.404;2023-02-15T05:25:13;4.65;;;3.35;;
65656;SDS011;57397;50.096;14.404;2023-02-15T05:27:56;5.20;;;3.28;;
65656;SDS011;57397;50.096;14.404;2023-02-15T05:30:40;6.28;;;3.30;;
65656;SDS011;57397;50.096;14.404;2023-02-15T05:33:06;5.70;;;3.35;;
65656;SDS011;57397;50.096;14.404;2023-02-15T05:35:32;6.07;;;3.70;;
65656;SDS011;57397;50.096;14.404;2023-02-15T05:37:58;6.47;;;3.45;;
65656;SDS011;57397;50.096;14.404;2023-02-15T05:40:23;6.13;;;3.80;;
65656;SDS011;57397;50.096;14.404;2023-02-15T05:42:49;6.95;;;3.50;;
65656;SDS011;57397;50.096;14.404;2023-02-15T05:45:14;5.75;;;3.38;;
65656;SDS011;57397;50.096;14.404;2023-02-15T05:47:40;5.03;;;3.28;;
65656;SDS011;57397;50.096;14.404;2023-02-15T05:50:06;6.40;;;3.47;;
65656;SDS011;57397;50.096;14.404;2023-02-15T05:52:33;6.20;;;3.72;;
65656;SDS011;57397;50.096;14.404;2023-02-15T05:54:59;5.63;;;3.42;;
65656;SDS011;57397;50.096;14.404;2023-02-15T05:57:25;5.15;;;3.60;;
65656;SDS011;57397;50.096;14.404;2023-02-15T05:59:51;5.38;;;3.50;;
65656;SDS011;57397;50.096;14.404;2023-02-15T06:02:17;6.03;;;3.40;;
65656;SDS011;57397;50.096;14.404;2023-02-15T06:04:43;5.95;;;3.28;;
65656;SDS011;57397;50.096;14.404;2023-02-15T06:07:09;5.93;;;3.60;;
65656;SDS011;57397;50.096;14.404;2023-02-15T06:09:34;5.15;;;3.20;;
65656;SDS011;57397;50.096;14.404;2023-02-15T06:12:00;6.68;;;3.45;;
65656;SDS011;57397;50.096;14.404;2023-02-15T06:14:26;6.70;;;3.70;;
65656;SDS011;57397;50.096;14.404;2023-02-15T06:16:52;5.72;;;3.20;;
65656;SDS011;57397;50.096;14.404;2023-02-15T06:19:18;5.22;;;3.30;;
65656;SDS011;57397;50.096;14.404;2023-02-15T06:21:44;6.90;;;3.53;;
65656;SDS011;57397;50.096;14.404;2023-02-15T06:24:09;6.18;;;3.25;;
65656;SDS011;57397;50.096;14.404;2023-02-15T06:26:35;6.68;;;3.63;;
65656;SDS011;57397;50.096;14.404;2023-02-15T06:29:00;5.50;;;3.35;;
65656;SDS011;57397;50.096;14.404;2023-02-15T06:31:26;5.07;;;3.33;;
65656;SDS011;57397;50.096;14.404;2023-02-15T06:33:51;7.20;;;3.78;;
65656;SDS011;57397;50.096;14.404;2023-02-15T06:36:17;5.95;;;3.78;;
65656;SDS011;57397;50.096;14.404;2023-02-15T06:38:42;6.85;;;3.88;;
65656;SDS011;57397;50.096;14.404;2023-02-15T06:41:08;6.00;;;3.40;;
65656;SDS011;57397;50.096;14.404;2023-02-15T06:43:33;6.55;;;3.75;;
65656;SDS011;57397;50.096;14.404;2023-02-15T06:45:59;5.53;;;3.67;;
65656;SDS011;57397;50.096;14.404;2023-02-15T06:48:25;5.55;;;2.95;;
65656;SDS011;57397;50.096;14.404;2023-02-15T06:50:51;5.30;;;3.35;;
65656;SDS011;57397;50.096;14.404;2023-02-15T06:53:16;6.45;;;3.47;;
65656;SDS011;57397;50.096;14.404;2023-02-15T06:55:42;6.13;;;3.53;;
65656;SDS011;57397;50.096;14.404;2023-02-15T06:58:07;7.10;;;3.88;;
65656;SDS011;57397;50.096;14.404;2023-02-15T07:00:33;6.30;;;3.63;;
65656;SDS011;57397;50.096;14.404;2023-02-15T07:02:59;5.93;;;3.65;;
65656;SDS011;57397;50.096;14.404;2023-02-15T07:05:25;5.40;;;3.38;;
65656;SDS011;57397;50.096;14.404;2023-02-15T07:07:56;5.72;;;3.47;;
65656;SDS011;57397;50.096;14.404;2023-02-15T07:10:22;5.80;;;3.30;;
65656;SDS011;57397;50.096;14.404;2023-02-15T07:12:48;6.10;;;3.78;;
65656;SDS011;57397;50.096;14.404;2023-02-15T07:15:14;5.60;;;3.47;;
65656;SDS011;57397;50.096;14.404;2023-02-15T07:17:41;6.22;;;3.25;;
65656;SDS011;57397;50.096;14.404;2023-02-15T07:20:09;5.18;;;3.25;;
65656;SDS011;57397;50.096;14.404;2023-02-15T07:22:36;5.85;;;3.22;;
65656;SDS011;57397;50.096;14.404;2023-02-15T07:25:02;6.78;;;3.63;;
65656;SDS011;57397;50.096;14.404;2023-02-15T07:27:28;6.07;;;3.90;;
65656;SDS011;57397;50.096;14.404;2023-02-15T07:29:55;6.10;;;3.60;;
65656;SDS011;57397;50.096;14.404;2023-02-15T07:32:20;6.05;;;3.58;;
65656;SDS011;57397;50.096;14.404;2023-02-15T07:34:46;6.18;;;3.88;;
65656;SDS011;57397;50.096;14.404;2023-02-15T07:37:11;6.28;;;4.13;;
65656;SDS011;57397;50.096;14.404;2023-02-15T07:39:37;8.05;;;4.03;;
65656;SDS011;57397;50.096;14.404;2023-02-15T07:42:02;7.35;;;4.05;;
65656;SDS011;57397;50.096;14.404;2023-02-15T07:44:28;6.75;;;3.97;;
65656;SDS011;57397;50.096;14.404;2023-02-15T07:46:54;6.82;;;3.78;;
65656;SDS011;57397;50.096;14.404;2023-02-15T07:49:19;6.97;;;4.10;;
65656;SDS011;57397;50.096;14.404;2023-02-15T07:51:45;7.25;;;3.80;;
65656;SDS011;57397;50.096;14.404;2023-02-15T07:54:11;7.85;;;4.25;;
65656;SDS011;57397;50.096;14.404;2023-02-15T07:56:36;6.72;;;4.28;;
65656;SDS011;57397;50.096;14.404;2023-02-15T07:59:02;6.88;;;4.32;;
65656;SDS011;57397;50.096;14.404;2023-02-15T08:01:33;7.07;;;4.22;;
65656;SDS011;57397;50.096;14.404;2023-02-15T08:04:00;7.00;;;4.15;;
65656;SDS011;57397;50.096;14.404;2023-02-15T08:06:27;5.97;;;3.63;;
65656;SDS011;57397;50.096;14.404;2023-02-15T08:08:54;6.88;;;3.88;;
65656;SDS011;57397;50.096;14.404;2023-02-15T08:19:12;7.45;;;4.40;;
65656;SDS011;57397;50.096;14.404;2023-02-15T08:21:43;7.68;;;4.38;;
65656;SDS011;57397;50.096;14.404;2023-02-15T08:24:11;7.90;;;4.32;;
65656;SDS011;57397;50.096;14.404;2023-02-15T08:26:38;7.40;;;4.15;;
65656;SDS011;57397;50.096;14.404;2023-02-15T08:29:04;8.85;;;4.45;;
65656;SDS011;57397;50.096;14.404;2023-02-15T08:31:31;6.53;;;4.00;;
65656;SDS011;57397;50.096;14.404;2023-02-15T08:33:57;8.60;;;4.45;;
65656;SDS011;57397;50.096;14.404;2023-02-15T08:36:24;6.38;;;4.22;;
65656;SDS011;57397;50.096;14.404;2023-02-15T08:38:52;7.15;;;4.15;;
65656;SDS011;57397;50.096;14.404;2023-02-15T08:41:18;7.82;;;4.68;;
65656;SDS011;57397;50.096;14.404;2023-02-15T08:43:46;7.72;;;4.07;;
65656;SDS011;57397;50.096;14.404;2023-02-15T08:46:14;7.70;;;4.15;;
65656;SDS011;57397;50.096;14.404;2023-02-15T08:48:40;7.97;;;4.30;;
65656;SDS011;57397;50.096;14.404;2023-02-15T08:51:10;7.95;;;4.20;;
65656;SDS011;57397;50.096;14.404;2023-02-15T08:53:41;8.65;;;4.63;;
65656;SDS011;57397;50.096;14.404;2023-02-15T08:56:09;7.40;;;4.32;;
65656;SDS011;57397;50.096;14.404;2023-02-15T08:58:34;8.48;;;4.78;;
65656;SDS011;57397;50.096;14.404;2023-02-15T09:01:00;8.55;;;4.75;;
65656;SDS011;57397;50.096;14.404;2023-02-15T09:03:29;7.05;;;4.40;;
65656;SDS011;57397;50.096;14.404;2023-02-15T09:05:58;7.68;;;4.53;;
65656;SDS011;57397;50.096;14.404;2023-02-15T09:08:25;7.57;;;4.47;;
65656;SDS011;57397;50.096;14.404;2023-02-15T09:10:51;6.93;;;4.30;;
65656;SDS011;57397;50.096;14.404;2023-02-15T09:13:17;8.05;;;4.40;;
65656;SDS011;57397;50.096;14.404;2023-02-15T09:15:42;7.65;;;4.30;;
65656;SDS011;57397;50.096;14.404;2023-02-15T09:18:08;7.10;;;4.15;;
65656;SDS011;57397;50.096;14.404;2023-02-15T09:20:36;7.95;;;4.35;;
65656;SDS011;57397;50.096;14.404;2023-02-15T09:23:02;7.68;;;4.35;;
65656;SDS011;57397;50.096;14.404;2023-02-15T09:25:28;7.50;;;3.85;;
65656;SDS011;57397;50.096;14.404;2023-02-15T09:27:53;8.27;;;4.47;;
65656;SDS011;57397;50.096;14.404;2023-02-15T09:30:19;8.50;;;4.30;;
65656;SDS011;57397;50.096;14.404;2023-02-15T09:32:44;7.10;;;4.07;;
65656;SDS011;57397;50.096;14.404;2023-02-15T09:35:11;7.30;;;4.13;;
65656;SDS011;57397;50.096;14.404;2023-02-15T09:37:37;8.18;;;4.57;;
65656;SDS011;57397;50.096;14.404;2023-02-15T09:40:03;9.02;;;4.60;;
65656;SDS011;57397;50.096;14.404;2023-02-15T09:42:40;8.63;;;4.38;;
65656;SDS011;57397;50.096;14.404;2023-02-15T10:07:20;10.00;;;5.60;;
65656;SDS011;57397;50.096;14.404;2023-02-15T10:18:47;8.93;;;5.10;;
65656;SDS011;57397;50.096;14.404;2023-02-15T10:26:40;8.45;;;4.70;;
65656;SDS011;57397;50.096;14.404;2023-02-15T10:29:10;9.70;;;4.97;;
65656;SDS011;57397;50.096;14.404;2023-02-15T10:34:27;11.82;;;5.88;;
65656;SDS011;57397;50.096;14.404;2023-02-15T10:48:29;12.68;;;6.10;;
65656;SDS011;57397;50.096;14.404;2023-02-15T10:51:19;11.10;;;5.63;;
65656;SDS011;57397;50.096;14.404;2023-02-15T11:02:13;12.85;;;6.25;;
65656;SDS011;57397;50.096;14.404;2023-02-15T11:09:48;11.38;;;5.50;;
65656;SDS011;57397;50.096;14.404;2023-02-15T11:12:17;11.65;;;6.13;;
65656;SDS011;57397;50.096;14.404;2023-02-15T11:14:54;11.63;;;5.90;;
65656;SDS011;57397;50.096;14.404;2023-02-15T11:17:39;11.02;;;6.05;;
65656;SDS011;57397;50.096;14.404;2023-02-15T11:22:58;12.82;;;6.15;;
65656;SDS011;57397;50.096;14.404;2023-02-15T11:25:28;12.35;;;6.13;;
65656;SDS011;57397;50.096;14.404;2023-02-15T11:27:55;12.27;;;6.07;;
65656;SDS011;57397;50.096;14.404;2023-02-15T11:32:52;10.93;;;6.30;;
65656;SDS011;57397;50.096;14.404;2023-02-15T11:35:31;13.55;;;6.85;;
65656;SDS011;57397;50.096;14.404;2023-02-15T11:38:01;13.52;;;6.70;;
65656;SDS011;57397;50.096;14.404;2023-02-15T11:40:36;12.45;;;6.38;;
65656;SDS011;57397;50.096;14.404;2023-02-15T11:43:29;13.25;;;6.68;;
65656;SDS011;57397;50.096;14.404;2023-02-15T11:45:59;11.30;;;6.13;;
65656;SDS011;57397;50.096;14.404;2023-02-15T11:48:24;11.68;;;6.95;;
65656;SDS011;57397;50.096;14.404;2023-02-15T11:50:50;14.48;;;7.05;;
65656;SDS011;57397;50.096;14.404;2023-02-15T11:53:17;12.05;;;6.55;;
65656;SDS011;57397;50.096;14.404;2023-02-15T11:55:43;13.00;;;6.47;;
65656;SDS011;57397;50.096;14.404;2023-02-15T12:03:48;12.93;;;6.97;;
65656;SDS011;57397;50.096;14.404;2023-02-15T12:06:21;14.07;;;7.13;;
65656;SDS011;57397;50.096;14.404;2023-02-15T12:08:55;13.50;;;6.63;;
65656;SDS011;57397;50.096;14.404;2023-02-15T12:11:37;12.23;;;6.13;;
65656;SDS011;57397;50.096;14.404;2023-02-15T12:14:07;13.27;;;6.75;;
65656;SDS011;57397;50.096;14.404;2023-02-15T12:19:09;12.88;;;6.55;;
65656;SDS011;57397;50.096;14.404;2023-02-15T12:21:44;12.93;;;6.80;;
65656;SDS011;57397;50.096;14.404;2023-02-15T12:32:26;12.02;;;6.80;;
65656;SDS011;57397;50.096;14.404;2023-02-15T12:35:25;13.63;;;7.40;;
65656;SDS011;57397;50.096;14.404;2023-02-15T12:38:35;14.27;;;7.07;;
65656;SDS011;57397;50.096;14.404;2023-02-15T12:40:49;12.55;;;7.30;;
65656;SDS011;57397;50.096;14.404;2023-02-15T12:49:07;13.25;;;6.97;;
65656;SDS011;57397;50.096;14.404;2023-02-15T12:51:52;14.98;;;7.53;;
65656;SDS011;57397;50.096;14.404;2023-02-15T12:54:31;13.27;;;7.38;;
65656;SDS011;57397;50.096;14.404;2023-02-15T12:56:59;13.77;;;7.53;;
65656;SDS011;57397;50.096;14.404;2023-02-15T12:59:47;13.52;;;6.85;;
65656;SDS011;57397;50.096;14.404;2023-02-15T13:02:21;16.63;;;7.97;;
65656;SDS011;57397;50.096;14.404;2023-02-15T13:08:00;15.25;;;7.82;;
65656;SDS011;57397;50.096;14.404;2023-02-15T13:13:00;12.73;;;6.85;;
65656;SDS011;57397;50.096;14.404;2023-02-15T13:17:58;15.27;;;7.68;;
65656;SDS011;57397;50.096;14.404;2023-02-15T13:20:24;14.75;;;7.22;;
65656;SDS011;57397;50.096;14.404;2023-02-15T13:22:52;16.83;;;8.13;;
65656;SDS011;57397;50.096;14.404;2023-02-15T13:25:22;16.85;;;7.75;;
65656;SDS011;57397;50.096;14.404;2023-02-15T13:27:54;15.88;;;8.02;;
65656;SDS011;57397;50.096;14.404;2023-02-15T13:30:24;16.55;;;8.35;;
65656;SDS011;57397;50.096;14.404;2023-02-15T13:33:36;12.88;;;6.93;;
65656;SDS011;57397;50.096;14.404;2023-02-15T13:35:43;13.70;;;7.45;;
65656;SDS011;57397;50.096;14.404;2023-02-15T13:54:52;16.55;;;8.15;;
65656;SDS011;57397;50.096;14.404;2023-02-15T14:05:13;16.65;;;8.38;;
65656;SDS011;57397;50.096;14.404;2023-02-15T14:21:34;18.33;;;9.00;;
65656;SDS011;57397;50.096;14.404;2023-02-15T14:31:59;18.73;;;9.35;;
65656;SDS011;57397;50.096;14.404;2023-02-15T14:34:30;16.00;;;8.48;;
65656;SDS011;57397;50.096;14.404;2023-02-15T14:43:24;19.60;;;9.13;;
65656;SDS011;57397;50.096;14.404;2023-02-15T14:46:22;17.45;;;8.88;;
65656;SDS011;57397;50.096;14.404;2023-02-15T14:48:57;17.23;;;8.55;;
65656;SDS011;57397;50.096;14.404;2023-02-15T15:02:21;18.88;;;9.50;;
65656;SDS011;57397;50.096;14.404;2023-02-15T15:05:06;18.33;;;8.95;;
65656;SDS011;57397;50.096;14.404;2023-02-15T15:12:43;20.30;;;9.48;;
65656;SDS011;57397;50.096;14.404;2023-02-15T15:15:13;17.65;;;9.15;;
65656;SDS011;57397;50.096;14.404;2023-02-15T15:18:09;18.50;;;9.73;;
65656;SDS011;57397;50.096;14.404;2023-02-15T15:31:01;21.67;;;10.30;;
65656;SDS011;57397;50.096;14.404;2023-02-15T15:33:46;18.15;;;9.35;;
65656;SDS011;57397;50.096;14.404;2023-02-15T15:50:20;21.17;;;11.13;;
65656;SDS011;57397;50.096;14.404;2023-02-15T15:52:50;20.33;;;10.18;;
65656;SDS011;57397;50.096;14.404;2023-02-15T15:55:18;22.70;;;10.55;;
65656;SDS011;57397;50.096;14.404;2023-02-15T15:57:48;22.42;;;11.68;;
65656;SDS011;57397;50.096;14.404;2023-02-15T16:02:59;21.63;;;10.80;;
65656;SDS011;57397;50.096;14.404;2023-02-15T16:05:25;22.02;;;11.20;;
65656;SDS011;57397;50.096;14.404;2023-02-15T16:07:50;24.30;;;11.00;;
65656;SDS011;57397;50.096;14.404;2023-02-15T16:10:20;21.77;;;11.00;;
65656;SDS011;57397;50.096;14.404;2023-02-15T16:12:47;23.50;;;11.95;;
65656;SDS011;57397;50.096;14.404;2023-02-15T16:15:14;25.00;;;11.95;;
65656;SDS011;57397;50.096;14.404;2023-02-15T16:17:41;22.90;;;11.60;;
65656;SDS011;57397;50.096;14.404;2023-02-15T16:22:37;22.90;;;11.27;;
65656;SDS011;57397;50.096;14.404;2023-02-15T16:27:56;23.15;;;11.65;;
65656;SDS011;57397;50.096;14.404;2023-02-15T16:30:29;23.20;;;11.85;;
65656;SDS011;57397;50.096;14.404;2023-02-15T16:33:10;21.98;;;11.57;;
65656;SDS011;57397;50.096;14.404;2023-02-15T16:35:55;22.92;;;10.65;;
65656;SDS011;57397;50.096;14.404;2023-02-15T16:41:06;23.05;;;10.82;;
65656;SDS011;57397;50.096;14.404;2023-02-15T16:43:32;21.58;;;11.18;;
65656;SDS011;57397;50.096;14.404;2023-02-15T16:46:03;21.27;;;10.88;;
65656;SDS011;57397;50.096;14.404;2023-02-15T16:48:30;21.10;;;9.80;;
65656;SDS011;57397;50.096;14.404;2023-02-15T16:50:57;22.60;;;11.55;;
65656;SDS011;57397;50.096;14.404;2023-02-15T16:53:25;21.40;;;11.13;;
65656;SDS011;57397;50.096;14.404;2023-02-15T16:55:56;20.48;;;10.38;;
65656;SDS011;57397;50.096;14.404;2023-02-15T16:58:25;22.33;;;11.55;;
65656;SDS011;57397;50.096;14.404;2023-02-15T17:01:00;21.52;;;11.30;;
65656;SDS011;57397;50.096;14.404;2023-02-15T17:03:26;20.13;;;10.73;;
65656;SDS011;57397;50.096;14.404;2023-02-15T17:05:56;18.45;;;10.40;;
65656;SDS011;57397;50.096;14.404;2023-02-15T17:08:42;19.45;;;10.00;;
65656;SDS011;57397;50.096;14.404;2023-02-15T17:11:21;20.08;;;10.15;;
65656;SDS011;57397;50.096;14.404;2023-02-15T17:21:49;19.98;;;10.27;;
65656;SDS011;57397;50.096;14.404;2023-02-15T17:24:39;18.45;;;9.77;;
65656;SDS011;57397;50.096;14.404;2023-02-15T17:27:10;18.50;;;9.60;;
65656;SDS011;57397;50.096;14.404;2023-02-15T17:29:40;17.02;;;8.73;;
65656;SDS011;57397;50.096;14.404;2023-02-15T17:32:21;17.60;;;8.95;;
65656;SDS011;57397;50.096;14.404;2023-02-15T17:40:06;17.30;;;9.50;;
65656;SDS011;57397;50.096;14.404;2023-02-15T17:42:40;17.48;;;9.23;;
65656;SDS011;57397;50.096;14.404;2023-02-15T17:45:05;16.45;;;9.05;;
65656;SDS011;57397;50.096;14.404;2023-02-15T17:47:31;15.27;;;8.27;;
65656;SDS011;57397;50.096;14.404;2023-02-15T17:49:57;16.75;;;9.27;;
65656;SDS011;57397;50.096;14.404;2023-02-15T17:52:29;15.23;;;8.95;;
65656;SDS011;57397;50.096;14.404;2023-02-15T17:54:55;16.70;;;9.43;;
65656;SDS011;57397;50.096;14.404;2023-02-15T17:57:39;15.10;;;8.88;;
65656;SDS011;57397;50.096;14.404;2023-02-15T18:00:05;15.10;;;8.32;;
65656;SDS011;57397;50.096;14.404;2023-02-15T18:02:50;17.13;;;9.20;;
65656;SDS011;57397;50.096;14.404;2023-02-15T18:05:33;16.35;;;9.20;;
65656;SDS011;57397;50.096;14.404;2023-02-15T18:08:18;14.98;;;8.48;;
65656;SDS011;57397;50.096;14.404;2023-02-15T18:11:07;15.63;;;8.35;;
65656;SDS011;57397;50.096;14.404;2023-02-15T18:13:51;15.65;;;9.02;;
65656;SDS011;57397;50.096;14.404;2023-02-15T18:16:19;15.23;;;8.52;;
65656;SDS011;57397;50.096;14.404;2023-02-15T18:18:47;15.45;;;8.88;;
65656;SDS011;57397;50.096;14.404;2023-02-15T18:21:12;15.05;;;7.90;;
65656;SDS011;57397;50.096;14.404;2023-02-15T18:23:38;13.25;;;8.02;;
65656;SDS011;57397;50.096;14.404;2023-02-15T18:26:04;14.73;;;8.52;;
65656;SDS011;57397;50.096;14.404;2023-02-15T18:28:31;15.30;;;8.18;;
65656;SDS011;57397;50.096;14.404;2023-02-15T18:30:57;14.88;;;8.40;;
65656;SDS011;57397;50.096;14.404;2023-02-15T18:36:12;14.45;;;8.32;;
65656;SDS011;57397;50.096;14.404;2023-02-15T18:38:41;14.18;;;8.13;;
65656;SDS011;57397;50.096;14.404;2023-02-15T18:41:08;15.07;;;8.50;;
65656;SDS011;57397;50.096;14.404;2023-02-15T18:43:39;15.10;;;8.60;;
65656;SDS011;57397;50.096;14.404;2023-02-15T18:46:05;13.90;;;8.15;;
65656;SDS011;57397;50.096;14.404;2023-02-15T18:48:30;16.80;;;9.40;;
65656;SDS011;57397;50.096;14.404;2023-02-15T18:50:56;15.00;;;8.32;;
65656;SDS011;57397;50.096;14.404;2023-02-15T18:53:22;14.13;;;8.25;;
65656;SDS011;57397;50.096;14.404;2023-02-15T18:55:47;15.98;;;9.13;;
65656;SDS011;57397;50.096;14.404;2023-02-15T18:58:14;14.82;;;8.57;;
65656;SDS011;57397;50.096;14.404;2023-02-15T19:00:41;14.48;;;8.15;;
65656;SDS011;57397;50.096;14.404;2023-02-15T19:03:08;16.27;;;8.85;;